Eriline, Kentucky
Current Conditions -  °F | °C
As of 5:15 PM on Saturday 20 Dec 2014 (Local Time) from KI35 Reporting Station
Overcast Overcast  
Wind Chill: 37°   Ceiling: 4300
Heat Index: 41°   Visibility: 10mi
Dew Point: 28°   Wind: 6mph
Humidity: 61%   Direction: 350°N
Pressure: 30.19"   Gusts: NA
Location:  37.19°N, 83.59°W
Report Text: KI35 202215Z AUTO 35005KT 10SM OVC043 05/M02 A3019 RMK AO1
Loading
Personal Weather Stations






























Interactive Weather Map New forecast layout! Learn more

10-Day Weather Forecast

Advertisements
Track Severe Weather on mobile